sensor_id;sensor_type;location;lat;lon;timestamp;pressure;altitude;pressure_sealevel;temperature;humidity
29215;BME280;16252;49.816;7.964;2024-02-04T00:02:21;101012.53;;;12.68;59.77
29215;BME280;16252;49.816;7.964;2024-02-04T00:04:48;101002.66;;;12.68;59.61
29215;BME280;16252;49.816;7.964;2024-02-04T00:07:13;101004.41;;;12.69;59.45
29215;BME280;16252;49.816;7.964;2024-02-04T00:09:38;101005.47;;;12.67;59.36
29215;BME280;16252;49.816;7.964;2024-02-04T00:12:04;101010.00;;;12.66;59.60
29215;BME280;16252;49.816;7.964;2024-02-04T00:14:31;101005.69;;;12.64;59.44
29215;BME280;16252;49.816;7.964;2024-02-04T00:16:56;101010.31;;;12.62;59.62
29215;BME280;16252;49.816;7.964;2024-02-04T00:19:22;101009.44;;;12.61;59.57
29215;BME280;16252;49.816;7.964;2024-02-04T00:21:47;101021.25;;;12.58;59.45
29215;BME280;16252;49.816;7.964;2024-02-04T00:24:12;101011.47;;;12.57;59.63
29215;BME280;16252;49.816;7.964;2024-02-04T00:26:37;100996.22;;;12.58;59.69
29215;BME280;16252;49.816;7.964;2024-02-04T00:29:03;100994.41;;;12.58;59.61
29215;BME280;16252;49.816;7.964;2024-02-04T00:31:28;100988.16;;;12.58;59.64
29215;BME280;16252;49.816;7.964;2024-02-04T00:33:53;100980.09;;;12.58;59.55
29215;BME280;16252;49.816;7.964;2024-02-04T00:36:18;100972.94;;;12.58;59.72
29215;BME280;16252;49.816;7.964;2024-02-04T00:38:44;100970.25;;;12.58;59.46
29215;BME280;16252;49.816;7.964;2024-02-04T00:41:09;100968.50;;;12.57;59.47
29215;BME280;16252;49.816;7.964;2024-02-04T00:43:35;100976.69;;;12.56;59.53
29215;BME280;16252;49.816;7.964;2024-02-04T00:46:00;100971.41;;;12.54;59.37
29215;BME280;16252;49.816;7.964;2024-02-04T00:48:26;100967.03;;;12.53;59.46
29215;BME280;16252;49.816;7.964;2024-02-04T00:50:51;100975.06;;;12.53;59.63
29215;BME280;16252;49.816;7.964;2024-02-04T00:53:16;100973.34;;;12.52;59.62
29215;BME280;16252;49.816;7.964;2024-02-04T00:55:41;100976.88;;;12.53;59.54
29215;BME280;16252;49.816;7.964;2024-02-04T00:58:07;100935.22;;;12.34;59.66
29215;BME280;16252;49.816;7.964;2024-02-04T01:00:32;100957.34;;;12.51;59.69
29215;BME280;16252;49.816;7.964;2024-02-04T01:02:59;100948.41;;;12.50;59.70
29215;BME280;16252;49.816;7.964;2024-02-04T01:05:24;100956.47;;;12.50;59.65
29215;BME280;16252;49.816;7.964;2024-02-04T01:07:49;100957.34;;;12.51;59.69
29215;BME280;16252;49.816;7.964;2024-02-04T01:10:14;100965.41;;;12.51;59.54
29215;BME280;16252;49.816;7.964;2024-02-04T01:12:39;100951.84;;;12.40;59.50
29215;BME280;16252;49.816;7.964;2024-02-04T01:15:05;100963.56;;;12.51;59.47
29215;BME280;16252;49.816;7.964;2024-02-04T01:17:31;100971.63;;;12.51;59.61
29215;BME280;16252;49.816;7.964;2024-02-04T01:19:56;100971.72;;;12.50;59.70
29215;BME280;16252;49.816;7.964;2024-02-04T01:22:21;100981.59;;;12.49;59.64
29215;BME280;16252;49.816;7.964;2024-02-04T01:24:51;100982.47;;;12.50;59.87
29215;BME280;16252;49.816;7.964;2024-02-04T01:27:16;100977.09;;;12.50;59.65
29215;BME280;16252;49.816;7.964;2024-02-04T01:29:41;100972.56;;;12.50;59.75
29215;BME280;16252;49.816;7.964;2024-02-04T01:32:06;100969.03;;;12.50;59.62
29215;BME280;16252;49.816;7.964;2024-02-04T01:34:32;100971.72;;;12.50;59.59
29215;BME280;16252;49.816;7.964;2024-02-04T01:36:57;100977.09;;;12.50;59.70
29215;BME280;16252;49.816;7.964;2024-02-04T01:39:22;100980.75;;;12.49;59.82
29215;BME280;16252;49.816;7.964;2024-02-04T01:41:47;100975.38;;;12.49;59.87
29215;BME280;16252;49.816;7.964;2024-02-04T01:44:12;100969.88;;;12.50;59.82
29215;BME280;16252;49.816;7.964;2024-02-04T01:46:38;100977.94;;;12.50;59.72
29215;BME280;16252;49.816;7.964;2024-02-04T01:49:03;100977.00;;;12.51;59.80
29215;BME280;16252;49.816;7.964;2024-02-04T01:51:28;100970.78;;;12.51;59.90
29215;BME280;16252;49.816;7.964;2024-02-04T01:53:53;100969.88;;;12.50;60.05
29215;BME280;16252;49.816;7.964;2024-02-04T01:56:18;100976.88;;;12.53;59.92
29215;BME280;16252;49.816;7.964;2024-02-04T01:58:44;100992.03;;;12.54;59.95
29215;BME280;16252;49.816;7.964;2024-02-04T02:01:10;100989.34;;;12.54;59.79
29215;BME280;16252;49.816;7.964;2024-02-04T02:03:36;100994.59;;;12.55;59.82
29215;BME280;16252;49.816;7.964;2024-02-04T02:06:03;100999.13;;;12.55;60.15
29215;BME280;16252;49.816;7.964;2024-02-04T02:08:29;100973.09;;;12.43;60.06
29215;BME280;16252;49.816;7.964;2024-02-04T02:10:57;100973.13;;;12.55;60.09
29215;BME280;16252;49.816;7.964;2024-02-04T02:13:30;100965.94;;;12.56;59.89
29215;BME280;16252;49.816;7.964;2024-02-04T02:26:30;100973.13;;;12.55;60.05
29215;BME280;16252;49.816;7.964;2024-02-04T02:28:55;100973.13;;;12.55;60.23
29215;BME280;16252;49.816;7.964;2024-02-04T02:31:20;100970.44;;;12.55;60.24
29215;BME280;16252;49.816;7.964;2024-02-04T02:33:45;100960.44;;;12.57;59.84
29215;BME280;16252;49.816;7.964;2024-02-04T02:36:13;100965.94;;;12.56;60.11
29215;BME280;16252;49.816;7.964;2024-02-04T02:41:22;100963.34;;;12.54;60.23
29215;BME280;16252;49.816;7.964;2024-02-04T02:43:49;100958.97;;;12.53;60.06
29215;BME280;16252;49.816;7.964;2024-02-04T02:46:16;100954.44;;;12.54;60.13
29215;BME280;16252;49.816;7.964;2024-02-04T02:48:42;100954.44;;;12.54;60.28
29215;BME280;16252;49.816;7.964;2024-02-04T02:51:07;100950.78;;;12.55;59.97
29215;BME280;16252;49.816;7.964;2024-02-04T02:53:32;100946.41;;;12.54;59.92
29215;BME280;16252;49.816;7.964;2024-02-04T02:55:57;100946.41;;;12.54;60.11
29215;BME280;16252;49.816;7.964;2024-02-04T02:58:22;100939.19;;;12.54;60.05
29215;BME280;16252;49.816;7.964;2024-02-04T03:00:47;100936.50;;;12.54;60.27
29215;BME280;16252;49.816;7.964;2024-02-04T03:03:13;100929.31;;;12.55;60.30
29215;BME280;16252;49.816;7.964;2024-02-04T03:05:38;100922.88;;;12.57;60.11
29215;BME280;16252;49.816;7.964;2024-02-04T03:08:03;100914.81;;;12.57;60.21
29215;BME280;16252;49.816;7.964;2024-02-04T03:10:29;100914.81;;;12.57;60.02
29215;BME280;16252;49.816;7.964;2024-02-04T03:12:54;100918.34;;;12.58;59.97
29215;BME280;16252;49.816;7.964;2024-02-04T03:15:19;100910.28;;;12.58;60.16
29215;BME280;16252;49.816;7.964;2024-02-04T03:17:44;100921.91;;;12.58;60.01
29215;BME280;16252;49.816;7.964;2024-02-04T03:20:09;100920.94;;;12.60;60.38
29215;BME280;16252;49.816;7.964;2024-02-04T03:22:35;100912.03;;;12.59;60.00
29215;BME280;16252;49.816;7.964;2024-02-04T03:25:00;100912.03;;;12.59;60.17
29215;BME280;16252;49.816;7.964;2024-02-04T03:27:25;100916.56;;;12.58;59.93
29215;BME280;16252;49.816;7.964;2024-02-04T03:29:50;100908.59;;;12.57;59.89
29215;BME280;16252;49.816;7.964;2024-02-04T03:32:15;100912.25;;;12.56;59.95
29215;BME280;16252;49.816;7.964;2024-02-04T03:34:41;100905.16;;;12.55;60.02
29215;BME280;16252;49.816;7.964;2024-02-04T03:37:06;100905.28;;;12.53;60.13
29215;BME280;16252;49.816;7.964;2024-02-04T03:39:32;100903.44;;;12.54;59.90
29215;BME280;16252;49.816;7.964;2024-02-04T03:41:57;100896.34;;;12.53;59.85
29215;BME280;16252;49.816;7.964;2024-02-04T03:44:22;100901.84;;;12.51;59.96
29215;BME280;16252;49.816;7.964;2024-02-04T03:46:48;100906.44;;;12.49;60.11
29215;BME280;16252;49.816;7.964;2024-02-04T03:49:13;100903.84;;;12.48;60.03
29215;BME280;16252;49.816;7.964;2024-02-04T03:51:39;100905.69;;;12.47;60.23
29215;BME280;16252;49.816;7.964;2024-02-04T03:54:04;100902.16;;;12.47;59.99
29215;BME280;16252;49.816;7.964;2024-02-04T03:56:29;100900.44;;;12.46;60.05
29215;BME280;16252;49.816;7.964;2024-02-04T03:58:54;100912.88;;;12.47;60.16
29215;BME280;16252;49.816;7.964;2024-02-04T04:01:19;100912.88;;;12.47;60.20
29215;BME280;16252;49.816;7.964;2024-02-04T04:03:45;100923.63;;;12.47;60.17
29215;BME280;16252;49.816;7.964;2024-02-04T04:06:10;100916.44;;;12.47;60.09
29215;BME280;16252;49.816;7.964;2024-02-04T04:08:36;100936.06;;;12.48;59.99
29215;BME280;16252;49.816;7.964;2024-02-04T04:11:01;100927.91;;;12.49;60.20
29215;BME280;16252;49.816;7.964;2024-02-04T04:13:26;100913.66;;;12.49;60.10
29215;BME280;16252;49.816;7.964;2024-02-04T04:36:25;100942.31;;;12.48;60.16
29215;BME280;16252;49.816;7.964;2024-02-04T04:38:50;100934.38;;;12.47;59.98
29215;BME280;16252;49.816;7.964;2024-02-04T04:41:16;100944.13;;;12.48;60.15
29215;BME280;16252;49.816;7.964;2024-02-04T04:43:41;100940.59;;;12.47;60.06
29215;BME280;16252;49.816;7.964;2024-02-04T04:46:06;100947.78;;;12.47;60.15
29215;BME280;16252;49.816;7.964;2024-02-04T04:50:59;100937.91;;;12.47;60.09
29215;BME280;16252;49.816;7.964;2024-02-04T04:53:24;100941.56;;;12.46;60.23
29215;BME280;16252;49.816;7.964;2024-02-04T04:55:49;100941.56;;;12.46;60.07
29215;BME280;16252;49.816;7.964;2024-02-04T04:58:14;100940.72;;;12.46;60.22
29215;BME280;16252;49.816;7.964;2024-02-04T05:00:40;100934.47;;;12.45;60.34
29215;BME280;16252;49.816;7.964;2024-02-04T05:03:05;100921.03;;;12.45;60.22
29215;BME280;16252;49.816;7.964;2024-02-04T05:05:30;100909.44;;;12.45;60.03
29215;BME280;16252;49.816;7.964;2024-02-04T05:07:55;100927.38;;;12.44;60.40
29215;BME280;16252;49.816;7.964;2024-02-04T05:10:20;100938.13;;;12.44;60.26
29215;BME280;16252;49.816;7.964;2024-02-04T05:12:45;100948.84;;;12.44;60.39
29215;BME280;16252;49.816;7.964;2024-02-04T05:15:11;100947.88;;;12.45;60.29
29215;BME280;16252;49.816;7.964;2024-02-04T05:17:36;100944.34;;;12.45;60.24
29215;BME280;16252;49.816;7.964;2024-02-04T05:20:01;100948.84;;;12.44;60.35
29215;BME280;16252;49.816;7.964;2024-02-04T05:22:28;100934.59;;;12.44;60.36
29215;BME280;16252;49.816;7.964;2024-02-04T05:24:53;100940.91;;;12.43;60.21
29215;BME280;16252;49.816;7.964;2024-02-04T05:27:18;100940.91;;;12.43;60.27
29215;BME280;16252;49.816;7.964;2024-02-04T05:29:43;100943.56;;;12.43;60.32
29215;BME280;16252;49.816;7.964;2024-02-04T05:32:10;100944.56;;;12.42;60.36
29215;BME280;16252;49.816;7.964;2024-02-04T05:34:36;100940.91;;;12.43;60.41
29215;BME280;16252;49.816;7.964;2024-02-04T05:37:01;100949.84;;;12.43;60.52
29215;BME280;16252;49.816;7.964;2024-02-04T05:39:26;100952.50;;;12.43;60.29
29215;BME280;16252;49.816;7.964;2024-02-04T05:41:51;100952.50;;;12.43;60.27
29215;BME280;16252;49.816;7.964;2024-02-04T05:44:17;100952.50;;;12.43;60.36
29215;BME280;16252;49.816;7.964;2024-02-04T05:46:42;100951.53;;;12.44;60.23
29215;BME280;16252;49.816;7.964;2024-02-04T05:49:07;100947.16;;;12.43;60.21
29215;BME280;16252;49.816;7.964;2024-02-04T05:51:37;100949.94;;;12.42;60.30
29215;BME280;16252;49.816;7.964;2024-02-04T05:54:02;100952.69;;;12.40;60.56
29215;BME280;16252;49.816;7.964;2024-02-04T05:56:27;100955.38;;;12.40;60.60
29215;BME280;16252;49.816;7.964;2024-02-04T05:58:52;100957.13;;;12.41;60.54
29215;BME280;16252;49.816;7.964;2024-02-04T06:01:17;100922.75;;;12.21;60.29
29215;BME280;16252;49.816;7.964;2024-02-04T06:03:43;100940.25;;;12.39;60.46
29215;BME280;16252;49.816;7.964;2024-02-04T06:06:17;100940.25;;;12.39;60.40
29215;BME280;16252;49.816;7.964;2024-02-04T06:08:44;100951.00;;;12.39;60.41
29215;BME280;16252;49.816;7.964;2024-02-04T06:11:13;100951.00;;;12.39;60.29
29215;BME280;16252;49.816;7.964;2024-02-04T06:13:39;100949.25;;;12.38;60.44
29215;BME280;16252;49.816;7.964;2024-02-04T06:16:05;100950.25;;;12.37;60.74
29215;BME280;16252;49.816;7.964;2024-02-04T06:18:30;100954.75;;;12.36;60.59
29215;BME280;16252;49.816;7.964;2024-02-04T06:20:55;100945.84;;;12.36;60.42
29215;BME280;16252;49.816;7.964;2024-02-04T06:23:21;100950.34;;;12.35;60.46
29215;BME280;16252;49.816;7.964;2024-02-04T06:25:46;100947.66;;;12.35;60.54
29215;BME280;16252;49.816;7.964;2024-02-04T06:28:11;100934.22;;;12.35;60.69
29215;BME280;16252;49.816;7.964;2024-02-04T06:30:36;100944.88;;;12.37;60.71
29215;BME280;16252;49.816;7.964;2024-02-04T06:33:01;100946.56;;;12.38;60.50
29215;BME280;16252;49.816;7.964;2024-02-04T06:35:27;100949.25;;;12.38;60.58
29215;BME280;16252;49.816;7.964;2024-02-04T06:37:53;100938.44;;;12.40;60.50
29215;BME280;16252;49.816;7.964;2024-02-04T06:40:18;100939.28;;;12.40;60.65
29215;BME280;16252;49.816;7.964;2024-02-04T06:42:43;100936.59;;;12.40;60.76
29215;BME280;16252;49.816;7.964;2024-02-04T06:45:09;100936.50;;;12.42;60.67
29215;BME280;16252;49.816;7.964;2024-02-04T06:47:34;100935.66;;;12.41;60.65
29215;BME280;16252;49.816;7.964;2024-02-04T06:50:00;100937.34;;;12.42;60.59
29215;BME280;16252;49.816;7.964;2024-02-04T06:52:28;100929.31;;;12.42;60.69
29215;BME280;16252;49.816;7.964;2024-02-04T06:54:53;100938.22;;;12.43;60.66
29215;BME280;16252;49.816;7.964;2024-02-04T06:57:18;100935.66;;;12.41;60.72
29215;BME280;16252;49.816;7.964;2024-02-04T06:59:43;100941.78;;;12.43;60.62
29215;BME280;16252;49.816;7.964;2024-02-04T07:02:08;100934.59;;;12.44;60.55
29215;BME280;16252;49.816;7.964;2024-02-04T07:04:34;100938.22;;;12.43;60.53
29215;BME280;16252;49.816;7.964;2024-02-04T07:06:59;100931.13;;;12.42;60.37
29215;BME280;16252;49.816;7.964;2024-02-04T07:09:24;100935.75;;;12.40;60.63
29215;BME280;16252;49.816;7.964;2024-02-04T07:11:49;100931.44;;;12.37;60.61
29215;BME280;16252;49.816;7.964;2024-02-04T07:14:14;100934.13;;;12.37;60.53
29215;BME280;16252;49.816;7.964;2024-02-04T07:16:40;100941.34;;;12.36;60.53
29215;BME280;16252;49.816;7.964;2024-02-04T07:19:06;100935.13;;;12.36;60.63
29215;BME280;16252;49.816;7.964;2024-02-04T07:21:31;100932.44;;;12.36;60.86
29215;BME280;16252;49.816;7.964;2024-02-04T07:23:56;100944.03;;;12.36;60.73
29215;BME280;16252;49.816;7.964;2024-02-04T07:26:22;100944.88;;;12.37;60.67
29215;BME280;16252;49.816;7.964;2024-02-04T07:28:47;100937.59;;;12.39;60.83
29215;BME280;16252;49.816;7.964;2024-02-04T07:31:12;100933.06;;;12.40;60.50
29215;BME280;16252;49.816;7.964;2024-02-04T07:33:37;100924.16;;;12.39;60.61
29215;BME280;16252;49.816;7.964;2024-02-04T07:36:02;100928.69;;;12.39;60.78
29215;BME280;16252;49.816;7.964;2024-02-04T07:38:28;100926.84;;;12.39;60.96
29215;BME280;16252;49.816;7.964;2024-02-04T07:40:53;100942.94;;;12.39;60.83
29215;BME280;16252;49.816;7.964;2024-02-04T07:43:20;100933.16;;;12.38;60.79
29215;BME280;16252;49.816;7.964;2024-02-04T07:45:45;100942.09;;;12.39;60.80
29215;BME280;16252;49.816;7.964;2024-02-04T07:48:11;100942.94;;;12.39;60.77
29215;BME280;16252;49.816;7.964;2024-02-04T07:50:36;100934.13;;;12.37;60.87
29215;BME280;16252;49.816;7.964;2024-02-04T07:53:01;100939.50;;;12.37;60.63
29215;BME280;16252;49.816;7.964;2024-02-04T07:55:27;100949.47;;;12.35;60.75
29215;BME280;16252;49.816;7.964;2024-02-04T07:57:52;100950.47;;;12.34;60.91
29215;BME280;16252;49.816;7.964;2024-02-04T08:00:17;100947.00;;;12.32;60.82
29215;BME280;16252;49.816;7.964;2024-02-04T08:02:44;100953.22;;;12.32;60.82
29215;BME280;16252;49.816;7.964;2024-02-04T08:05:09;100946.16;;;12.31;60.80
29215;BME280;16252;49.816;7.964;2024-02-04T08:07:34;100950.69;;;12.31;60.62
29215;BME280;16252;49.816;7.964;2024-02-04T08:09:59;100941.00;;;12.28;60.75
29215;BME280;16252;49.816;7.964;2024-02-04T08:12:25;100939.19;;;12.29;61.14
29215;BME280;16252;49.816;7.964;2024-02-04T08:14:50;100946.38;;;12.28;60.92
29215;BME280;16252;49.816;7.964;2024-02-04T08:17:15;100947.22;;;12.29;60.82
29215;BME280;16252;49.816;7.964;2024-02-04T08:19:40;100949.06;;;12.28;60.78
29215;BME280;16252;49.816;7.964;2024-02-04T08:22:06;100940.25;;;12.26;60.89
29215;BME280;16252;49.816;7.964;2024-02-04T08:24:32;100946.38;;;12.28;61.06
29215;BME280;16252;49.816;7.964;2024-02-04T08:26:57;100942.81;;;12.28;61.28
29215;BME280;16252;49.816;7.964;2024-02-04T08:29:23;100931.00;;;12.30;61.33
29215;BME280;16252;49.816;7.964;2024-02-04T08:31:48;100929.06;;;12.32;61.29
29215;BME280;16252;49.816;7.964;2024-02-04T08:34:13;100918.25;;;12.34;61.31
29215;BME280;16252;49.816;7.964;2024-02-04T08:36:38;100929.63;;;12.38;61.18
29215;BME280;16252;49.816;7.964;2024-02-04T08:39:03;100939.28;;;12.40;61.38
29215;BME280;16252;49.816;7.964;2024-02-04T08:41:29;100942.50;;;12.45;61.30
29215;BME280;16252;49.816;7.964;2024-02-04T08:43:54;100949.31;;;12.51;61.36
29215;BME280;16252;49.816;7.964;2024-02-04T08:46:19;100925.78;;;12.54;61.40
29215;BME280;16252;49.816;7.964;2024-02-04T08:48:44;100951.44;;;12.58;61.48
29215;BME280;16252;49.816;7.964;2024-02-04T08:51:10;100954.78;;;12.62;61.35
29215;BME280;16252;49.816;7.964;2024-02-04T08:53:35;100947.47;;;12.64;61.58
29215;BME280;16252;49.816;7.964;2024-02-04T08:56:01;100954.47;;;12.67;61.33
29215;BME280;16252;49.816;7.964;2024-02-04T08:58:26;100947.03;;;12.70;61.46
29215;BME280;16252;49.816;7.964;2024-02-04T09:00:51;100954.00;;;12.73;61.26
29215;BME280;16252;49.816;7.964;2024-02-04T09:03:16;100936.06;;;12.73;61.31
29215;BME280;16252;49.816;7.964;2024-02-04T09:05:41;100934.13;;;12.75;61.21
29215;BME280;16252;49.816;7.964;2024-02-04T09:08:06;100926.09;;;12.75;61.23
29215;BME280;16252;49.816;7.964;2024-02-04T09:10:32;100934.03;;;12.77;61.38
29215;BME280;16252;49.816;7.964;2024-02-04T09:12:57;100919.63;;;12.78;61.11
29215;BME280;16252;49.816;7.964;2024-02-04T09:15:22;100924.16;;;12.77;61.21
29215;BME280;16252;49.816;7.964;2024-02-04T09:17:47;100924.16;;;12.77;61.27
29215;BME280;16252;49.816;7.964;2024-02-04T09:20:12;100925.84;;;12.78;61.06
29215;BME280;16252;49.816;7.964;2024-02-04T09:22:38;100929.53;;;12.77;61.23
29215;BME280;16252;49.816;7.964;2024-02-04T09:25:04;100930.38;;;12.78;61.11
29215;BME280;16252;49.816;7.964;2024-02-04T09:27:29;100940.25;;;12.77;61.15
29215;BME280;16252;49.816;7.964;2024-02-04T09:29:54;100939.28;;;12.78;61.06
29215;BME280;16252;49.816;7.964;2024-02-04T09:32:20;100919.53;;;12.79;61.17
29215;BME280;16252;49.816;7.964;2024-02-04T09:34:45;100917.81;;;12.78;61.15
29215;BME280;16252;49.816;7.964;2024-02-04T09:37:10;100926.75;;;12.79;61.21
29215;BME280;16252;49.816;7.964;2024-02-04T09:39:36;100927.69;;;12.78;61.18
29215;BME280;16252;49.816;7.964;2024-02-04T09:42:01;100929.53;;;12.77;61.14
29215;BME280;16252;49.816;7.964;2024-02-04T09:44:26;100928.66;;;12.77;61.08
29215;BME280;16252;49.816;7.964;2024-02-04T09:46:52;100926.84;;;12.77;61.43
29215;BME280;16252;49.816;7.964;2024-02-04T09:49:18;100919.63;;;12.78;61.22
29215;BME280;16252;49.816;7.964;2024-02-04T09:51:44;100926.84;;;12.77;61.35
29215;BME280;16252;49.816;7.964;2024-02-04T09:54:09;100920.50;;;12.78;61.27
29215;BME280;16252;49.816;7.964;2024-02-04T09:56:37;100919.53;;;12.79;61.30
29215;BME280;16252;49.816;7.964;2024-02-04T09:59:04;100914.03;;;12.81;61.07
29215;BME280;16252;49.816;7.964;2024-02-04T10:01:29;100918.34;;;12.84;61.29
29215;BME280;16252;49.816;7.964;2024-02-04T10:03:56;100914.78;;;12.83;61.36
29215;BME280;16252;49.816;7.964;2024-02-04T10:06:21;100918.22;;;12.85;61.51
29215;BME280;16252;49.816;7.964;2024-02-04T10:08:46;100918.22;;;12.85;61.24
29215;BME280;16252;49.816;7.964;2024-02-04T10:11:12;100918.91;;;12.89;61.30
29215;BME280;16252;49.816;7.964;2024-02-04T10:13:45;100916.09;;;12.90;61.36
29215;BME280;16252;49.816;7.964;2024-02-04T10:16:11;100932.19;;;12.90;61.37
29215;BME280;16252;49.816;7.964;2024-02-04T10:18:36;100932.19;;;12.90;61.30
29215;BME280;16252;49.816;7.964;2024-02-04T10:21:02;100927.56;;;12.92;61.62
29215;BME280;16252;49.816;7.964;2024-02-04T10:23:27;100923.91;;;12.93;61.35
29215;BME280;16252;49.816;7.964;2024-02-04T10:25:59;100928.34;;;12.94;61.56
29215;BME280;16252;49.816;7.964;2024-02-04T10:28:24;100934.34;;;12.98;61.59
29215;BME280;16252;49.816;7.964;2024-02-04T10:30:49;100947.66;;;12.99;61.78
29215;BME280;16252;49.816;7.964;2024-02-04T10:33:15;100946.59;;;13.02;61.37
29215;BME280;16252;49.816;7.964;2024-02-04T10:35:42;100940.47;;;13.00;61.52
29215;BME280;16252;49.816;7.964;2024-02-04T10:38:07;100941.53;;;12.97;61.21
29215;BME280;16252;49.816;7.964;2024-02-04T10:40:32;100933.56;;;12.96;61.14
29215;BME280;16252;49.816;7.964;2024-02-04T10:43:00;100932.84;;;12.94;61.14
29215;BME280;16252;49.816;7.964;2024-02-04T10:45:28;100933.94;;;12.91;61.19
29215;BME280;16252;49.816;7.964;2024-02-04T10:47:55;100932.31;;;12.89;61.27
29215;BME280;16252;49.816;7.964;2024-02-04T10:50:22;100922.44;;;12.89;61.41
29215;BME280;16252;49.816;7.964;2024-02-04T10:52:49;100934.03;;;12.90;61.56
29215;BME280;16252;49.816;7.964;2024-02-04T10:55:15;100919.63;;;12.91;61.43
29215;BME280;16252;49.816;7.964;2024-02-04T10:57:42;100921.34;;;12.92;61.62
29215;BME280;16252;49.816;7.964;2024-02-04T11:00:07;100927.56;;;12.92;61.66
29215;BME280;16252;49.816;7.964;2024-02-04T11:02:36;100914.06;;;12.94;61.69
29215;BME280;16252;49.816;7.964;2024-02-04T11:05:03;100912.97;;;12.96;61.74
29215;BME280;16252;49.816;7.964;2024-02-04T11:07:33;100904.03;;;12.96;61.62
29215;BME280;16252;49.816;7.964;2024-02-04T11:09:59;100902.94;;;12.98;61.59
29215;BME280;16252;49.816;7.964;2024-02-04T11:12:28;100897.56;;;12.98;61.56
29215;BME280;16252;49.816;7.964;2024-02-04T11:14:59;100895.78;;;12.99;61.57
29215;BME280;16252;49.816;7.964;2024-02-04T11:17:34;100894.78;;;13.00;61.66
29215;BME280;16252;49.816;7.964;2024-02-04T11:20:08;100880.50;;;12.99;61.68
29215;BME280;16252;49.816;7.964;2024-02-04T11:22:43;100879.53;;;13.00;61.59
29215;BME280;16252;49.816;7.964;2024-02-04T11:25:17;100872.22;;;13.02;61.61
29215;BME280;16252;49.816;7.964;2024-02-04T11:27:47;100858.69;;;13.04;61.75
29215;BME280;16252;49.816;7.964;2024-02-04T11:30:13;100865.66;;;13.07;61.92
29215;BME280;16252;49.816;7.964;2024-02-04T11:32:40;100866.19;;;13.12;61.86
29215;BME280;16252;49.816;7.964;2024-02-04T11:35:06;100850.69;;;13.15;62.04
29215;BME280;16252;49.816;7.964;2024-02-04T11:37:32;100847.66;;;13.20;62.04
29215;BME280;16252;49.816;7.964;2024-02-04T11:39:58;100855.19;;;13.28;62.27
29215;BME280;16252;49.816;7.964;2024-02-04T11:42:23;100836.66;;;13.36;62.25
29215;BME280;16252;49.816;7.964;2024-02-04T11:44:49;100844.91;;;13.46;62.33
29215;BME280;16252;49.816;7.964;2024-02-04T11:47:25;100864.00;;;13.54;62.17
29215;BME280;16252;49.816;7.964;2024-02-04T11:49:54;100863.53;;;13.60;62.13
29215;BME280;16252;49.816;7.964;2024-02-04T11:52:20;100791.75;;;13.25;62.01
29215;BME280;16252;49.816;7.964;2024-02-04T11:54:45;100843.25;;;13.67;61.66
29215;BME280;16252;49.816;7.964;2024-02-04T11:57:10;100844.13;;;13.68;61.67
29215;BME280;16252;49.816;7.964;2024-02-04T11:59:36;100840.56;;;13.67;61.57
29215;BME280;16252;49.816;7.964;2024-02-04T12:02:05;100847.69;;;13.68;61.75
29215;BME280;16252;49.816;7.964;2024-02-04T12:04:31;100839.63;;;13.68;61.57
29215;BME280;16252;49.816;7.964;2024-02-04T12:06:57;100845.84;;;13.69;61.51
29215;BME280;16252;49.816;7.964;2024-02-04T12:09:22;100842.31;;;13.68;61.62
29215;BME280;16252;49.816;7.964;2024-02-04T12:11:47;100833.25;;;13.69;61.46
29215;BME280;16252;49.816;7.964;2024-02-04T12:14:13;100838.63;;;13.69;61.49
29215;BME280;16252;49.816;7.964;2024-02-04T12:16:38;100848.53;;;13.69;61.63
29215;BME280;16252;49.816;7.964;2024-02-04T12:19:05;100843.25;;;13.67;61.65
29215;BME280;16252;49.816;7.964;2024-02-04T12:21:30;100844.13;;;13.68;61.42
29215;BME280;16252;49.816;7.964;2024-02-04T12:23:56;100845.00;;;13.68;61.60
29215;BME280;16252;49.816;7.964;2024-02-04T12:26:22;100848.63;;;13.67;61.32
29215;BME280;16252;49.816;7.964;2024-02-04T12:28:48;100838.88;;;13.66;61.24
29215;BME280;16252;49.816;7.964;2024-02-04T12:31:16;100831.66;;;13.66;61.31
29215;BME280;16252;49.816;7.964;2024-02-04T12:33:42;100828.09;;;13.66;61.46
29215;BME280;16252;49.816;7.964;2024-02-04T12:36:08;100823.56;;;13.66;61.56
29215;BME280;16252;49.816;7.964;2024-02-04T12:38:33;100824.44;;;13.67;61.43
29215;BME280;16252;49.816;7.964;2024-02-04T12:41:02;100832.41;;;13.69;61.55
29215;BME280;16252;49.816;7.964;2024-02-04T12:43:28;100832.41;;;13.69;61.56
29215;BME280;16252;49.816;7.964;2024-02-04T12:45:55;100809.03;;;13.69;61.55
29215;BME280;16252;49.816;7.964;2024-02-04T12:48:21;100816.38;;;13.67;61.33
29215;BME280;16252;49.816;7.964;2024-02-04T12:50:48;100810.97;;;13.67;61.34
29215;BME280;16252;49.816;7.964;2024-02-04T12:53:13;100811.97;;;13.66;61.34
29215;BME280;16252;49.816;7.964;2024-02-04T12:55:40;100795.00;;;13.65;61.14
29215;BME280;16252;49.816;7.964;2024-02-04T12:58:08;100792.28;;;13.65;61.25
29215;BME280;16252;49.816;7.964;2024-02-04T13:00:35;100787.88;;;13.64;61.06
29215;BME280;16252;49.816;7.964;2024-02-04T13:03:00;100779.81;;;13.64;61.24
29215;BME280;16252;49.816;7.964;2024-02-04T13:05:26;100779.94;;;13.63;61.29
29215;BME280;16252;49.816;7.964;2024-02-04T13:07:53;100773.47;;;13.65;61.37
29215;BME280;16252;49.816;7.964;2024-02-04T13:10:20;100773.22;;;13.69;61.50
29215;BME280;16252;49.816;7.964;2024-02-04T13:12:45;100769.34;;;13.73;61.43
29215;BME280;16252;49.816;7.964;2024-02-04T13:15:10;100770.78;;;13.77;61.60
29215;BME280;16252;49.816;7.964;2024-02-04T13:17:35;100766.81;;;13.82;61.68
29215;BME280;16252;49.816;7.964;2024-02-04T13:20:00;100763.63;;;13.88;61.84